sensor_id;sensor_type;location;lat;lon;timestamp;P1;durP1;ratioP1;P2;durP2;ratioP2
3355;SDS011;1691;52.486;13.374;2023-07-28T00:01:57;1.57;;;1.47;;
3355;SDS011;1691;52.486;13.374;2023-07-28T00:04:24;1.57;;;1.47;;
3355;SDS011;1691;52.486;13.374;2023-07-28T00:06:51;2.40;;;1.67;;
3355;SDS011;1691;52.486;13.374;2023-07-28T00:09:18;9.83;;;1.70;;
3355;SDS011;1691;52.486;13.374;2023-07-28T00:11:44;7.13;;;2.67;;
3355;SDS011;1691;52.486;13.374;2023-07-28T00:14:11;3.43;;;2.57;;
3355;SDS011;1691;52.486;13.374;2023-07-28T00:16:38;10.43;;;3.53;;
3355;SDS011;1691;52.486;13.374;2023-07-28T00:19:05;3.30;;;2.43;;
3355;SDS011;1691;52.486;13.374;2023-07-28T00:21:32;3.00;;;2.80;;
3355;SDS011;1691;52.486;13.374;2023-07-28T00:23:59;2.30;;;2.20;;
3355;SDS011;1691;52.486;13.374;2023-07-28T00:26:25;2.60;;;2.50;;
3355;SDS011;1691;52.486;13.374;2023-07-28T00:28:52;2.93;;;2.83;;
3355;SDS011;1691;52.486;13.374;2023-07-28T00:31:19;3.27;;;2.90;;
3355;SDS011;1691;52.486;13.374;2023-07-28T00:33:46;2.80;;;2.70;;
3355;SDS011;1691;52.486;13.374;2023-07-28T00:36:13;3.03;;;2.90;;
3355;SDS011;1691;52.486;13.374;2023-07-28T00:38:40;3.60;;;3.40;;
3355;SDS011;1691;52.486;13.374;2023-07-28T00:41:06;3.70;;;3.40;;
3355;SDS011;1691;52.486;13.374;2023-07-28T00:43:33;3.33;;;3.13;;
3355;SDS011;1691;52.486;13.374;2023-07-28T00:46:00;6.20;;;3.37;;
3355;SDS011;1691;52.486;13.374;2023-07-28T00:48:27;3.30;;;3.00;;
3355;SDS011;1691;52.486;13.374;2023-07-28T00:50:54;5.70;;;3.20;;
3355;SDS011;1691;52.486;13.374;2023-07-28T00:53:21;3.10;;;2.90;;
3355;SDS011;1691;52.486;13.374;2023-07-28T00:55:49;4.90;;;2.80;;
3355;SDS011;1691;52.486;13.374;2023-07-28T00:58:17;3.20;;;2.90;;
3355;SDS011;1691;52.486;13.374;2023-07-28T01:00:44;2.70;;;2.50;;
3355;SDS011;1691;52.486;13.374;2023-07-28T01:03:11;3.40;;;2.60;;
3355;SDS011;1691;52.486;13.374;2023-07-28T01:08:25;10.03;;;2.80;;
3355;SDS011;1691;52.486;13.374;2023-07-28T01:11:07;2.70;;;2.50;;
3355;SDS011;1691;52.486;13.374;2023-07-28T01:13:34;3.73;;;3.03;;
3355;SDS011;1691;52.486;13.374;2023-07-28T01:16:00;2.00;;;1.90;;
3355;SDS011;1691;52.486;13.374;2023-07-28T01:18:27;2.20;;;2.00;;
3355;SDS011;1691;52.486;13.374;2023-07-28T01:20:55;2.40;;;2.20;;
3355;SDS011;1691;52.486;13.374;2023-07-28T01:28:34;10.30;;;2.63;;
3355;SDS011;1691;52.486;13.374;2023-07-28T01:31:05;3.40;;;1.83;;
3355;SDS011;1691;52.486;13.374;2023-07-28T01:33:33;4.90;;;2.27;;
3355;SDS011;1691;52.486;13.374;2023-07-28T01:36:00;2.63;;;2.43;;
3355;SDS011;1691;52.486;13.374;2023-07-28T01:38:27;4.10;;;2.50;;
3355;SDS011;1691;52.486;13.374;2023-07-28T01:40:54;1.90;;;1.77;;
3355;SDS011;1691;52.486;13.374;2023-07-28T01:43:21;2.60;;;2.50;;
3355;SDS011;1691;52.486;13.374;2023-07-28T01:45:48;4.80;;;2.80;;
3355;SDS011;1691;52.486;13.374;2023-07-28T01:48:15;4.23;;;2.20;;
3355;SDS011;1691;52.486;13.374;2023-07-28T01:50:42;2.80;;;2.57;;
3355;SDS011;1691;52.486;13.374;2023-07-28T01:53:09;3.03;;;2.83;;
3355;SDS011;1691;52.486;13.374;2023-07-28T01:55:36;2.33;;;2.23;;
3355;SDS011;1691;52.486;13.374;2023-07-28T01:58:02;3.33;;;3.03;;
3355;SDS011;1691;52.486;13.374;2023-07-28T02:00:29;3.40;;;2.60;;
3355;SDS011;1691;52.486;13.374;2023-07-28T02:02:56;3.00;;;2.77;;
3355;SDS011;1691;52.486;13.374;2023-07-28T02:05:24;4.97;;;2.90;;
3355;SDS011;1691;52.486;13.374;2023-07-28T02:07:51;3.20;;;3.10;;
3355;SDS011;1691;52.486;13.374;2023-07-28T02:10:18;5.27;;;2.87;;
3355;SDS011;1691;52.486;13.374;2023-07-28T02:12:45;4.10;;;3.13;;
3355;SDS011;1691;52.486;13.374;2023-07-28T02:15:12;5.00;;;3.30;;
3355;SDS011;1691;52.486;13.374;2023-07-28T02:17:39;3.30;;;3.10;;
3355;SDS011;1691;52.486;13.374;2023-07-28T02:20:07;5.77;;;3.00;;
3355;SDS011;1691;52.486;13.374;2023-07-28T02:22:36;4.70;;;3.80;;
3355;SDS011;1691;52.486;13.374;2023-07-28T02:25:03;3.40;;;3.30;;
3355;SDS011;1691;52.486;13.374;2023-07-28T02:27:31;4.30;;;4.00;;
3355;SDS011;1691;52.486;13.374;2023-07-28T02:29:58;4.17;;;3.90;;
3355;SDS011;1691;52.486;13.374;2023-07-28T02:32:25;5.13;;;4.70;;
3355;SDS011;1691;52.486;13.374;2023-07-28T02:34:52;4.57;;;4.37;;
3355;SDS011;1691;52.486;13.374;2023-07-28T02:37:19;4.30;;;3.90;;
3355;SDS011;1691;52.486;13.374;2023-07-28T02:39:46;4.33;;;4.10;;
3355;SDS011;1691;52.486;13.374;2023-07-28T02:42:13;4.40;;;4.00;;
3355;SDS011;1691;52.486;13.374;2023-07-28T02:44:40;4.03;;;3.63;;
3355;SDS011;1691;52.486;13.374;2023-07-28T02:47:07;4.40;;;4.20;;
3355;SDS011;1691;52.486;13.374;2023-07-28T02:49:34;4.60;;;4.10;;
3355;SDS011;1691;52.486;13.374;2023-07-28T02:52:01;4.77;;;4.47;;
3355;SDS011;1691;52.486;13.374;2023-07-28T02:54:29;5.03;;;4.67;;
3355;SDS011;1691;52.486;13.374;2023-07-28T02:56:56;4.70;;;4.43;;
3355;SDS011;1691;52.486;13.374;2023-07-28T02:59:22;4.13;;;4.03;;
3355;SDS011;1691;52.486;13.374;2023-07-28T03:01:49;3.93;;;3.83;;
3355;SDS011;1691;52.486;13.374;2023-07-28T03:04:19;5.20;;;4.97;;
3355;SDS011;1691;52.486;13.374;2023-07-28T03:06:46;6.50;;;4.63;;
3355;SDS011;1691;52.486;13.374;2023-07-28T03:09:14;5.73;;;5.03;;
3355;SDS011;1691;52.486;13.374;2023-07-28T03:11:44;8.57;;;4.60;;
3355;SDS011;1691;52.486;13.374;2023-07-28T03:14:11;5.23;;;4.93;;
3355;SDS011;1691;52.486;13.374;2023-07-28T03:16:39;4.50;;;4.13;;
3355;SDS011;1691;52.486;13.374;2023-07-28T03:19:08;4.87;;;4.47;;
3355;SDS011;1691;52.486;13.374;2023-07-28T03:21:34;4.90;;;4.70;;
3355;SDS011;1691;52.486;13.374;2023-07-28T03:24:05;5.43;;;4.80;;
3355;SDS011;1691;52.486;13.374;2023-07-28T03:26:32;9.17;;;5.10;;
3355;SDS011;1691;52.486;13.374;2023-07-28T03:28:59;4.77;;;4.47;;
3355;SDS011;1691;52.486;13.374;2023-07-28T03:31:26;5.97;;;4.30;;
3355;SDS011;1691;52.486;13.374;2023-07-28T03:33:52;5.00;;;4.67;;
3355;SDS011;1691;52.486;13.374;2023-07-28T03:36:19;5.20;;;4.80;;
3355;SDS011;1691;52.486;13.374;2023-07-28T03:38:46;4.77;;;4.47;;
3355;SDS011;1691;52.486;13.374;2023-07-28T03:41:13;5.40;;;5.00;;
3355;SDS011;1691;52.486;13.374;2023-07-28T03:43:40;4.87;;;4.63;;
3355;SDS011;1691;52.486;13.374;2023-07-28T03:46:07;5.60;;;5.10;;
3355;SDS011;1691;52.486;13.374;2023-07-28T03:48:34;5.00;;;4.80;;
3355;SDS011;1691;52.486;13.374;2023-07-28T03:51:01;6.33;;;5.93;;
3355;SDS011;1691;52.486;13.374;2023-07-28T03:53:28;6.70;;;5.30;;
3355;SDS011;1691;52.486;13.374;2023-07-28T03:55:55;7.00;;;6.40;;
3355;SDS011;1691;52.486;13.374;2023-07-28T03:58:27;8.60;;;5.83;;
3355;SDS011;1691;52.486;13.374;2023-07-28T04:00:54;5.57;;;5.17;;
3355;SDS011;1691;52.486;13.374;2023-07-28T04:03:21;5.53;;;5.13;;
3355;SDS011;1691;52.486;13.374;2023-07-28T04:05:48;9.63;;;6.00;;
3355;SDS011;1691;52.486;13.374;2023-07-28T04:08:15;7.97;;;6.33;;
3355;SDS011;1691;52.486;13.374;2023-07-28T04:10:42;7.07;;;6.47;;
3355;SDS011;1691;52.486;13.374;2023-07-28T04:13:09;14.07;;;5.83;;
3355;SDS011;1691;52.486;13.374;2023-07-28T04:15:36;6.13;;;5.83;;
3355;SDS011;1691;52.486;13.374;2023-07-28T04:18:03;7.30;;;6.70;;
3355;SDS011;1691;52.486;13.374;2023-07-28T04:20:30;6.17;;;5.70;;
3355;SDS011;1691;52.486;13.374;2023-07-28T04:22:56;7.23;;;6.30;;
3355;SDS011;1691;52.486;13.374;2023-07-28T04:25:23;6.63;;;5.90;;
3355;SDS011;1691;52.486;13.374;2023-07-28T04:27:50;6.60;;;6.10;;
3355;SDS011;1691;52.486;13.374;2023-07-28T04:30:17;7.27;;;6.70;;
3355;SDS011;1691;52.486;13.374;2023-07-28T04:32:44;6.40;;;6.00;;
3355;SDS011;1691;52.486;13.374;2023-07-28T04:35:11;8.00;;;5.70;;
3355;SDS011;1691;52.486;13.374;2023-07-28T04:37:39;7.17;;;6.67;;
3355;SDS011;1691;52.486;13.374;2023-07-28T04:40:06;6.53;;;6.33;;
3355;SDS011;1691;52.486;13.374;2023-07-28T04:42:34;6.50;;;6.10;;
3355;SDS011;1691;52.486;13.374;2023-07-28T04:45:02;6.87;;;6.47;;
3355;SDS011;1691;52.486;13.374;2023-07-28T04:47:29;7.57;;;7.07;;
3355;SDS011;1691;52.486;13.374;2023-07-28T04:49:56;6.87;;;6.37;;
3355;SDS011;1691;52.486;13.374;2023-07-28T04:52:23;6.77;;;6.27;;
3355;SDS011;1691;52.486;13.374;2023-07-28T04:54:50;6.43;;;6.03;;
3355;SDS011;1691;52.486;13.374;2023-07-28T04:57:18;7.37;;;6.97;;
3355;SDS011;1691;52.486;13.374;2023-07-28T04:59:45;5.60;;;5.30;;
3355;SDS011;1691;52.486;13.374;2023-07-28T05:02:12;7.97;;;7.13;;
3355;SDS011;1691;52.486;13.374;2023-07-28T05:04:39;6.40;;;5.97;;
3355;SDS011;1691;52.486;13.374;2023-07-28T05:07:06;7.00;;;6.40;;
3355;SDS011;1691;52.486;13.374;2023-07-28T05:09:32;6.90;;;6.30;;
3355;SDS011;1691;52.486;13.374;2023-07-28T05:11:59;13.70;;;6.53;;
3355;SDS011;1691;52.486;13.374;2023-07-28T05:14:26;6.20;;;5.90;;
3355;SDS011;1691;52.486;13.374;2023-07-28T05:16:53;6.70;;;6.33;;
3355;SDS011;1691;52.486;13.374;2023-07-28T05:19:20;10.93;;;6.50;;
3355;SDS011;1691;52.486;13.374;2023-07-28T05:21:46;7.37;;;6.20;;
3355;SDS011;1691;52.486;13.374;2023-07-28T05:24:13;7.83;;;7.17;;
3355;SDS011;1691;52.486;13.374;2023-07-28T05:26:40;6.60;;;6.30;;
3355;SDS011;1691;52.486;13.374;2023-07-28T05:29:07;6.67;;;6.17;;
3355;SDS011;1691;52.486;13.374;2023-07-28T05:31:33;7.53;;;6.43;;
3355;SDS011;1691;52.486;13.374;2023-07-28T05:34:01;9.70;;;6.30;;
3355;SDS011;1691;52.486;13.374;2023-07-28T05:36:28;6.50;;;6.00;;
3355;SDS011;1691;52.486;13.374;2023-07-28T05:38:55;5.40;;;5.10;;
3355;SDS011;1691;52.486;13.374;2023-07-28T05:41:22;6.53;;;5.93;;
3355;SDS011;1691;52.486;13.374;2023-07-28T05:43:50;6.63;;;6.17;;
3355;SDS011;1691;52.486;13.374;2023-07-28T05:46:17;7.60;;;5.70;;
3355;SDS011;1691;52.486;13.374;2023-07-28T05:48:45;6.03;;;5.73;;
3355;SDS011;1691;52.486;13.374;2023-07-28T05:51:11;6.53;;;5.90;;
3355;SDS011;1691;52.486;13.374;2023-07-28T05:53:38;10.23;;;5.17;;
3355;SDS011;1691;52.486;13.374;2023-07-28T05:56:05;6.13;;;5.73;;
3355;SDS011;1691;52.486;13.374;2023-07-28T05:58:32;6.07;;;5.67;;
3355;SDS011;1691;52.486;13.374;2023-07-28T06:00:59;11.63;;;6.57;;
3355;SDS011;1691;52.486;13.374;2023-07-28T06:03:26;5.23;;;4.97;;
3355;SDS011;1691;52.486;13.374;2023-07-28T06:05:55;6.37;;;5.53;;
3355;SDS011;1691;52.486;13.374;2023-07-28T06:08:22;5.40;;;5.10;;
3355;SDS011;1691;52.486;13.374;2023-07-28T06:10:49;8.73;;;5.63;;
3355;SDS011;1691;52.486;13.374;2023-07-28T06:13:16;5.10;;;4.90;;
3355;SDS011;1691;52.486;13.374;2023-07-28T06:15:43;6.57;;;6.00;;
3355;SDS011;1691;52.486;13.374;2023-07-28T06:18:09;6.20;;;5.40;;
3355;SDS011;1691;52.486;13.374;2023-07-28T06:20:36;5.13;;;4.83;;
3355;SDS011;1691;52.486;13.374;2023-07-28T06:23:03;5.73;;;5.30;;
3355;SDS011;1691;52.486;13.374;2023-07-28T06:25:30;5.17;;;4.97;;
3355;SDS011;1691;52.486;13.374;2023-07-28T06:27:57;5.40;;;5.00;;
3355;SDS011;1691;52.486;13.374;2023-07-28T06:30:23;6.00;;;4.67;;
3355;SDS011;1691;52.486;13.374;2023-07-28T06:32:50;5.50;;;5.30;;
3355;SDS011;1691;52.486;13.374;2023-07-28T06:35:17;5.27;;;4.87;;
3355;SDS011;1691;52.486;13.374;2023-07-28T06:37:44;4.30;;;4.03;;
3355;SDS011;1691;52.486;13.374;2023-07-28T06:40:11;5.27;;;4.93;;
3355;SDS011;1691;52.486;13.374;2023-07-28T06:42:38;4.70;;;4.40;;
3355;SDS011;1691;52.486;13.374;2023-07-28T06:45:05;5.10;;;4.90;;
3355;SDS011;1691;52.486;13.374;2023-07-28T06:47:32;4.30;;;4.10;;
3355;SDS011;1691;52.486;13.374;2023-07-28T06:49:59;10.73;;;8.33;;
3355;SDS011;1691;52.486;13.374;2023-07-28T06:52:25;41.13;;;22.77;;
3355;SDS011;1691;52.486;13.374;2023-07-28T06:54:52;12.40;;;11.13;;
3355;SDS011;1691;52.486;13.374;2023-07-28T06:57:20;7.87;;;4.50;;
3355;SDS011;1691;52.486;13.374;2023-07-28T06:59:47;7.97;;;7.27;;
3355;SDS011;1691;52.486;13.374;2023-07-28T07:02:15;6.03;;;4.20;;
3355;SDS011;1691;52.486;13.374;2023-07-28T07:04:42;3.60;;;3.50;;
3355;SDS011;1691;52.486;13.374;2023-07-28T07:07:09;4.87;;;3.50;;
3355;SDS011;1691;52.486;13.374;2023-07-28T07:09:36;3.57;;;3.37;;
3355;SDS011;1691;52.486;13.374;2023-07-28T07:12:03;6.60;;;3.80;;
3355;SDS011;1691;52.486;13.374;2023-07-28T07:14:30;3.67;;;3.50;;
3355;SDS011;1691;52.486;13.374;2023-07-28T07:16:57;10.33;;;2.97;;
3355;SDS011;1691;52.486;13.374;2023-07-28T07:19:24;3.10;;;2.80;;
3355;SDS011;1691;52.486;13.374;2023-07-28T07:21:50;3.07;;;2.17;;
3355;SDS011;1691;52.486;13.374;2023-07-28T07:24:17;2.67;;;2.57;;
3355;SDS011;1691;52.486;13.374;2023-07-28T07:26:44;3.03;;;2.80;;
3355;SDS011;1691;52.486;13.374;2023-07-28T07:29:11;9.43;;;2.60;;
3355;SDS011;1691;52.486;13.374;2023-07-28T07:31:38;4.20;;;2.30;;
3355;SDS011;1691;52.486;13.374;2023-07-28T07:34:05;2.17;;;1.90;;
3355;SDS011;1691;52.486;13.374;2023-07-28T07:36:33;7.40;;;1.83;;
3355;SDS011;1691;52.486;13.374;2023-07-28T07:39:00;2.03;;;1.80;;
3355;SDS011;1691;52.486;13.374;2023-07-28T07:41:27;9.87;;;8.87;;
3355;SDS011;1691;52.486;13.374;2023-07-28T07:43:55;5.00;;;4.60;;
3355;SDS011;1691;52.486;13.374;2023-07-28T07:46:23;2.90;;;1.30;;
3355;SDS011;1691;52.486;13.374;2023-07-28T07:48:50;3.67;;;1.50;;
3355;SDS011;1691;52.486;13.374;2023-07-28T07:51:17;4.20;;;1.60;;
3355;SDS011;1691;52.486;13.374;2023-07-28T07:53:44;1.80;;;0.90;;
3355;SDS011;1691;52.486;13.374;2023-07-28T07:56:11;0.90;;;0.70;;
3355;SDS011;1691;52.486;13.374;2023-07-28T07:58:38;1.00;;;0.83;;
3355;SDS011;1691;52.486;13.374;2023-07-28T08:01:05;4.67;;;0.90;;
3355;SDS011;1691;52.486;13.374;2023-07-28T08:03:32;3.67;;;0.87;;
3355;SDS011;1691;52.486;13.374;2023-07-28T08:05:59;2.47;;;0.80;;
3355;SDS011;1691;52.486;13.374;2023-07-28T08:08:26;0.90;;;0.80;;
3355;SDS011;1691;52.486;13.374;2023-07-28T08:10:53;3.17;;;0.63;;
3355;SDS011;1691;52.486;13.374;2023-07-28T08:13:21;1.73;;;0.60;;
3355;SDS011;1691;52.486;13.374;2023-07-28T08:15:48;3.10;;;0.97;;
3355;SDS011;1691;52.486;13.374;2023-07-28T08:18:15;1.00;;;0.60;;
3355;SDS011;1691;52.486;13.374;2023-07-28T08:20:42;1.97;;;0.70;;
3355;SDS011;1691;52.486;13.374;2023-07-28T08:23:08;1.03;;;0.63;;
3355;SDS011;1691;52.486;13.374;2023-07-28T08:25:36;0.80;;;0.50;;
3355;SDS011;1691;52.486;13.374;2023-07-28T08:28:03;0.97;;;0.70;;
3355;SDS011;1691;52.486;13.374;2023-07-28T08:30:30;1.33;;;0.67;;
3355;SDS011;1691;52.486;13.374;2023-07-28T08:32:58;0.80;;;0.70;;
3355;SDS011;1691;52.486;13.374;2023-07-28T08:35:25;1.20;;;1.10;;
3355;SDS011;1691;52.486;13.374;2023-07-28T08:37:52;4.00;;;0.70;;
3355;SDS011;1691;52.486;13.374;2023-07-28T08:40:19;1.00;;;0.90;;
3355;SDS011;1691;52.486;13.374;2023-07-28T08:42:47;3.47;;;0.97;;
3355;SDS011;1691;52.486;13.374;2023-07-28T08:45:15;3.20;;;0.83;;
3355;SDS011;1691;52.486;13.374;2023-07-28T08:47:44;0.90;;;0.80;;
3355;SDS011;1691;52.486;13.374;2023-07-28T08:50:13;0.97;;;0.87;;
3355;SDS011;1691;52.486;13.374;2023-07-28T08:52:40;2.53;;;0.70;;
3355;SDS011;1691;52.486;13.374;2023-07-28T08:55:07;0.70;;;0.70;;
3355;SDS011;1691;52.486;13.374;2023-07-28T08:57:35;0.80;;;0.70;;
3355;SDS011;1691;52.486;13.374;2023-07-28T09:00:09;0.80;;;0.63;;
3355;SDS011;1691;52.486;13.374;2023-07-28T09:02:42;1.10;;;0.93;;
3355;SDS011;1691;52.486;13.374;2023-07-28T09:05:19;6.30;;;1.23;;
3355;SDS011;1691;52.486;13.374;2023-07-28T09:07:47;2.20;;;0.90;;
3355;SDS011;1691;52.486;13.374;2023-07-28T09:10:14;1.00;;;0.80;;
3355;SDS011;1691;52.486;13.374;2023-07-28T09:12:45;1.00;;;0.90;;
3355;SDS011;1691;52.486;13.374;2023-07-28T09:15:13;1.33;;;1.10;;
3355;SDS011;1691;52.486;13.374;2023-07-28T09:17:41;2.23;;;1.50;;
3355;SDS011;1691;52.486;13.374;2023-07-28T09:20:15;5.30;;;1.80;;
3355;SDS011;1691;52.486;13.374;2023-07-28T09:22:43;2.83;;;2.63;;
3355;SDS011;1691;52.486;13.374;2023-07-28T09:25:13;2.33;;;2.20;;
3355;SDS011;1691;52.486;13.374;2023-07-28T09:27:48;1.97;;;1.30;;
3355;SDS011;1691;52.486;13.374;2023-07-28T09:30:19;9.10;;;1.00;;
3355;SDS011;1691;52.486;13.374;2023-07-28T09:32:49;1.10;;;1.10;;
3355;SDS011;1691;52.486;13.374;2023-07-28T09:35:17;2.60;;;1.10;;
3355;SDS011;1691;52.486;13.374;2023-07-28T09:37:45;6.53;;;1.07;;
3355;SDS011;1691;52.486;13.374;2023-07-28T09:40:16;1.00;;;0.93;;
3355;SDS011;1691;52.486;13.374;2023-07-28T09:42:46;3.27;;;1.23;;
3355;SDS011;1691;52.486;13.374;2023-07-28T09:45:19;2.23;;;0.97;;
3355;SDS011;1691;52.486;13.374;2023-07-28T09:48:02;2.97;;;0.80;;
3355;SDS011;1691;52.486;13.374;2023-07-28T09:50:35;13.07;;;1.43;;
3355;SDS011;1691;52.486;13.374;2023-07-28T09:53:04;0.70;;;0.60;;
3355;SDS011;1691;52.486;13.374;2023-07-28T09:55:34;0.77;;;0.70;;
3355;SDS011;1691;52.486;13.374;2023-07-28T09:58:03;2.50;;;0.67;;
3355;SDS011;1691;52.486;13.374;2023-07-28T10:00:32;1.17;;;0.73;;
3355;SDS011;1691;52.486;13.374;2023-07-28T10:03:00;0.67;;;0.60;;
3355;SDS011;1691;52.486;13.374;2023-07-28T10:05:29;1.47;;;0.80;;
3355;SDS011;1691;52.486;13.374;2023-07-28T10:07:56;3.77;;;0.83;;
3355;SDS011;1691;52.486;13.374;2023-07-28T10:10:23;8.80;;;0.60;;
3355;SDS011;1691;52.486;13.374;2023-07-28T10:12:51;2.00;;;0.70;;
3355;SDS011;1691;52.486;13.374;2023-07-28T10:15:22;0.70;;;0.60;;
3355;SDS011;1691;52.486;13.374;2023-07-28T10:17:55;0.90;;;0.77;;
3355;SDS011;1691;52.486;13.374;2023-07-28T10:20:31;2.80;;;1.00;;
3355;SDS011;1691;52.486;13.374;2023-07-28T10:23:12;4.17;;;0.90;;
3355;SDS011;1691;52.486;13.374;2023-07-28T10:25:40;1.10;;;1.00;;
3355;SDS011;1691;52.486;13.374;2023-07-28T10:30:59;4.30;;;3.97;;
3355;SDS011;1691;52.486;13.374;2023-07-28T10:35:54;1.93;;;1.83;;
3355;SDS011;1691;52.486;13.374;2023-07-28T10:38:30;8.67;;;1.50;;
3355;SDS011;1691;52.486;13.374;2023-07-28T10:43:35;1.90;;;1.80;;
3355;SDS011;1691;52.486;13.374;2023-07-28T10:46:04;2.90;;;2.03;;
3355;SDS011;1691;52.486;13.374;2023-07-28T10:48:33;1.87;;;1.20;;
3355;SDS011;1691;52.486;13.374;2023-07-28T10:51:07;3.27;;;1.17;;
3355;SDS011;1691;52.486;13.374;2023-07-28T10:53:33;3.37;;;1.43;;
3355;SDS011;1691;52.486;13.374;2023-07-28T10:56:02;1.07;;;1.07;;
3355;SDS011;1691;52.486;13.374;2023-07-28T10:58:33;1.53;;;1.10;;
3355;SDS011;1691;52.486;13.374;2023-07-28T11:01:03;0.87;;;0.87;;
3355;SDS011;1691;52.486;13.374;2023-07-28T11:03:30;2.10;;;1.07;;
3355;SDS011;1691;52.486;13.374;2023-07-28T11:05:57;0.70;;;0.70;;
3355;SDS011;1691;52.486;13.374;2023-07-28T11:08:24;1.17;;;0.90;;
3355;SDS011;1691;52.486;13.374;2023-07-28T11:10:51;1.07;;;1.07;;
3355;SDS011;1691;52.486;13.374;2023-07-28T11:13:18;1.67;;;1.10;;
3355;SDS011;1691;52.486;13.374;2023-07-28T11:16:03;1.30;;;1.20;;
3355;SDS011;1691;52.486;13.374;2023-07-28T11:18:31;0.90;;;0.90;;
3355;SDS011;1691;52.486;13.374;2023-07-28T11:20:59;1.47;;;1.20;;
3355;SDS011;1691;52.486;13.374;2023-07-28T11:23:26;1.40;;;1.30;;
3355;SDS011;1691;52.486;13.374;2023-07-28T11:25:55;2.03;;;1.77;;
3355;SDS011;1691;52.486;13.374;2023-07-28T11:28:21;1.30;;;1.20;;
3355;SDS011;1691;52.486;13.374;2023-07-28T11:30:49;1.60;;;1.50;;
3355;SDS011;1691;52.486;13.374;2023-07-28T11:33:15;1.60;;;1.50;;
3355;SDS011;1691;52.486;13.374;2023-07-28T11:35:46;1.60;;;1.50;;
3355;SDS011;1691;52.486;13.374;2023-07-28T11:38:13;1.80;;;1.70;;
3355;SDS011;1691;52.486;13.374;2023-07-28T11:40:41;1.87;;;1.77;;
3355;SDS011;1691;52.486;13.374;2023-07-28T11:43:08;1.83;;;1.50;;
3355;SDS011;1691;52.486;13.374;2023-07-28T11:45:35;2.00;;;1.90;;
3355;SDS011;1691;52.486;13.374;2023-07-28T11:48:02;1.40;;;1.30;;
3355;SDS011;1691;52.486;13.374;2023-07-28T11:50:38;13.10;;;10.13;;
3355;SDS011;1691;52.486;13.374;2023-07-28T11:53:08;28.93;;;22.93;;
3355;SDS011;1691;52.486;13.374;2023-07-28T11:55:36;2.47;;;2.37;;
3355;SDS011;1691;52.486;13.374;2023-07-28T11:58:04;2.43;;;1.40;;
3355;SDS011;1691;52.486;13.374;2023-07-28T12:00:32;1.67;;;1.57;;
3355;SDS011;1691;52.486;13.374;2023-07-28T12:03:04;2.07;;;1.77;;
3355;SDS011;1691;52.486;13.374;2023-07-28T12:05:39;1.50;;;1.30;;
3355;SDS011;1691;52.486;13.374;2023-07-28T12:08:10;2.10;;;1.37;;
3355;SDS011;1691;52.486;13.374;2023-07-28T12:10:37;1.30;;;1.20;;
3355;SDS011;1691;52.486;13.374;2023-07-28T12:13:46;1.67;;;1.53;;
3355;SDS011;1691;52.486;13.374;2023-07-28T12:19:12;1.40;;;1.30;;
3355;SDS011;1691;52.486;13.374;2023-07-28T12:21:40;1.20;;;1.10;;
3355;SDS011;1691;52.486;13.374;2023-07-28T12:24:07;1.50;;;1.40;;
3355;SDS011;1691;52.486;13.374;2023-07-28T12:26:34;9.73;;;8.83;;
3355;SDS011;1691;52.486;13.374;2023-07-28T12:29:06;9.60;;;8.17;;
3355;SDS011;1691;52.486;13.374;2023-07-28T12:31:37;8.10;;;1.60;;
3355;SDS011;1691;52.486;13.374;2023-07-28T12:34:07;2.53;;;2.43;;
3355;SDS011;1691;52.486;13.374;2023-07-28T12:36:33;2.00;;;1.13;;
3355;SDS011;1691;52.486;13.374;2023-07-28T12:39:03;6.73;;;1.37;;
3355;SDS011;1691;52.486;13.374;2023-07-28T12:41:35;1.50;;;1.40;;
3355;SDS011;1691;52.486;13.374;2023-07-28T12:44:04;2.03;;;1.93;;
3355;SDS011;1691;52.486;13.374;2023-07-28T12:46:32;1.47;;;1.37;;
3355;SDS011;1691;52.486;13.374;2023-07-28T12:48:59;1.63;;;1.53;;
3355;SDS011;1691;52.486;13.374;2023-07-28T12:51:26;2.17;;;1.97;;
3355;SDS011;1691;52.486;13.374;2023-07-28T12:54:12;2.77;;;1.87;;
3355;SDS011;1691;52.486;13.374;2023-07-28T12:56:39;2.07;;;1.87;;
3355;SDS011;1691;52.486;13.374;2023-07-28T12:59:06;1.80;;;1.70;;
3355;SDS011;1691;52.486;13.374;2023-07-28T13:01:37;2.07;;;1.97;;
3355;SDS011;1691;52.486;13.374;2023-07-28T13:04:04;4.70;;;1.40;;
3355;SDS011;1691;52.486;13.374;2023-07-28T13:06:31;2.80;;;2.70;;
3355;SDS011;1691;52.486;13.374;2023-07-28T13:08:58;1.60;;;1.50;;
3355;SDS011;1691;52.486;13.374;2023-07-28T13:11:28;2.40;;;1.87;;
3355;SDS011;1691;52.486;13.374;2023-07-28T13:14:15;1.50;;;1.40;;
3355;SDS011;1691;52.486;13.374;2023-07-28T13:16:42;1.40;;;1.30;;
3355;SDS011;1691;52.486;13.374;2023-07-28T13:19:10;1.90;;;1.80;;
3355;SDS011;1691;52.486;13.374;2023-07-28T13:21:38;2.83;;;1.87;;
3355;SDS011;1691;52.486;13.374;2023-07-28T13:24:04;2.00;;;1.80;;
3355;SDS011;1691;52.486;13.374;2023-07-28T13:26:31;5.23;;;1.37;;
3355;SDS011;1691;52.486;13.374;2023-07-28T13:28:58;1.67;;;1.30;;
3355;SDS011;1691;52.486;13.374;2023-07-28T13:31:28;1.53;;;1.43;;
3355;SDS011;1691;52.486;13.374;2023-07-28T13:33:55;1.67;;;1.43;;
3355;SDS011;1691;52.486;13.374;2023-07-28T13:36:24;1.53;;;1.43;;
3355;SDS011;1691;52.486;13.374;2023-07-28T13:38:51;8.43;;;1.67;;
3355;SDS011;1691;52.486;13.374;2023-07-28T13:41:17;8.40;;;7.70;;
3355;SDS011;1691;52.486;13.374;2023-07-28T13:43:44;3.10;;;2.60;;
3355;SDS011;1691;52.486;13.374;2023-07-28T13:46:11;4.70;;;4.40;;
3355;SDS011;1691;52.486;13.374;2023-07-28T13:48:39;1.90;;;1.80;;
3355;SDS011;1691;52.486;13.374;2023-07-28T13:51:08;1.57;;;1.47;;
3355;SDS011;1691;52.486;13.374;2023-07-28T13:53:44;1.67;;;1.57;;
3355;SDS011;1691;52.486;13.374;2023-07-28T13:56:32;2.30;;;2.20;;
3355;SDS011;1691;52.486;13.374;2023-07-28T13:58:58;1.50;;;1.40;;
3355;SDS011;1691;52.486;13.374;2023-07-28T14:01:25;1.20;;;1.10;;
3355;SDS011;1691;52.486;13.374;2023-07-28T14:03:52;1.30;;;1.20;;
3355;SDS011;1691;52.486;13.374;2023-07-28T14:06:19;1.47;;;1.37;;
3355;SDS011;1691;52.486;13.374;2023-07-28T14:08:46;1.43;;;1.33;;
3355;SDS011;1691;52.486;13.374;2023-07-28T14:11:13;1.60;;;1.50;;
3355;SDS011;1691;52.486;13.374;2023-07-28T14:13:40;1.40;;;1.30;;
3355;SDS011;1691;52.486;13.374;2023-07-28T14:16:06;1.40;;;1.30;;
3355;SDS011;1691;52.486;13.374;2023-07-28T14:18:35;1.23;;;1.23;;
3355;SDS011;1691;52.486;13.374;2023-07-28T14:21:02;1.40;;;1.30;;
3355;SDS011;1691;52.486;13.374;2023-07-28T14:23:29;4.50;;;4.30;;
3355;SDS011;1691;52.486;13.374;2023-07-28T14:25:56;6.70;;;6.27;;
3355;SDS011;1691;52.486;13.374;2023-07-28T14:28:23;2.17;;;2.07;;
3355;SDS011;1691;52.486;13.374;2023-07-28T14:30:50;1.40;;;1.30;;
3355;SDS011;1691;52.486;13.374;2023-07-28T14:33:18;1.20;;;1.07;;
3355;SDS011;1691;52.486;13.374;2023-07-28T14:35:45;2.83;;;1.10;;
3355;SDS011;1691;52.486;13.374;2023-07-28T14:38:14;5.53;;;5.23;;
3355;SDS011;1691;52.486;13.374;2023-07-28T14:40:41;2.20;;;2.10;;
3355;SDS011;1691;52.486;13.374;2023-07-28T14:43:10;2.13;;;1.10;;
3355;SDS011;1691;52.486;13.374;2023-07-28T14:45:37;1.20;;;1.10;;
3355;SDS011;1691;52.486;13.374;2023-07-28T14:48:04;1.13;;;1.03;;
3355;SDS011;1691;52.486;13.374;2023-07-28T14:50:31;1.27;;;1.17;;
3355;SDS011;1691;52.486;13.374;2023-07-28T14:52:58;1.40;;;1.30;;
3355;SDS011;1691;52.486;13.374;2023-07-28T14:55:26;2.57;;;1.10;;
3355;SDS011;1691;52.486;13.374;2023-07-28T14:57:53;1.33;;;1.23;;
3355;SDS011;1691;52.486;13.374;2023-07-28T15:00:20;1.50;;;1.40;;
3355;SDS011;1691;52.486;13.374;2023-07-28T15:02:46;1.00;;;1.00;;
3355;SDS011;1691;52.486;13.374;2023-07-28T15:05:13;1.47;;;1.37;;
3355;SDS011;1691;52.486;13.374;2023-07-28T15:07:40;2.10;;;2.00;;
3355;SDS011;1691;52.486;13.374;2023-07-28T15:10:07;1.80;;;1.70;;
3355;SDS011;1691;52.486;13.374;2023-07-28T15:12:34;1.13;;;1.10;;
3355;SDS011;1691;52.486;13.374;2023-07-28T15:15:01;3.23;;;1.37;;
3355;SDS011;1691;52.486;13.374;2023-07-28T15:17:28;1.37;;;1.27;;
3355;SDS011;1691;52.486;13.374;2023-07-28T15:19:55;2.07;;;1.10;;
3355;SDS011;1691;52.486;13.374;2023-07-28T15:22:22;1.50;;;1.40;;
3355;SDS011;1691;52.486;13.374;2023-07-28T15:24:48;1.50;;;1.40;;